sensor_id;sensor_type;location;lat;lon;timestamp;P1;durP1;ratioP1;P2;durP2;ratioP2
18653;SDS011;9456;47.824;16.228;2023-11-19T00:02:11;4.97;;;4.40;;
18653;SDS011;9456;47.824;16.228;2023-11-19T00:04:39;5.77;;;4.83;;
18653;SDS011;9456;47.824;16.228;2023-11-19T00:07:07;5.90;;;5.30;;
18653;SDS011;9456;47.824;16.228;2023-11-19T00:09:41;9.03;;;7.17;;
18653;SDS011;9456;47.824;16.228;2023-11-19T00:12:09;4.77;;;4.37;;
18653;SDS011;9456;47.824;16.228;2023-11-19T00:14:37;5.00;;;4.50;;
18653;SDS011;9456;47.824;16.228;2023-11-19T00:17:12;6.17;;;5.30;;
18653;SDS011;9456;47.824;16.228;2023-11-19T00:19:40;6.93;;;4.20;;
18653;SDS011;9456;47.824;16.228;2023-11-19T00:22:08;5.00;;;4.37;;
18653;SDS011;9456;47.824;16.228;2023-11-19T00:24:36;6.17;;;5.57;;
18653;SDS011;9456;47.824;16.228;2023-11-19T00:27:04;6.17;;;4.60;;
18653;SDS011;9456;47.824;16.228;2023-11-19T00:29:32;4.60;;;4.17;;
18653;SDS011;9456;47.824;16.228;2023-11-19T00:32:00;4.53;;;4.13;;
18653;SDS011;9456;47.824;16.228;2023-11-19T00:34:28;4.67;;;4.03;;
18653;SDS011;9456;47.824;16.228;2023-11-19T00:36:56;4.60;;;4.00;;
18653;SDS011;9456;47.824;16.228;2023-11-19T00:39:24;4.30;;;3.90;;
18653;SDS011;9456;47.824;16.228;2023-11-19T00:41:52;4.73;;;4.33;;
18653;SDS011;9456;47.824;16.228;2023-11-19T00:44:20;5.23;;;4.73;;
18653;SDS011;9456;47.824;16.228;2023-11-19T00:46:52;6.23;;;4.23;;
18653;SDS011;9456;47.824;16.228;2023-11-19T00:49:20;5.17;;;4.67;;
18653;SDS011;9456;47.824;16.228;2023-11-19T00:51:48;4.73;;;4.27;;
18653;SDS011;9456;47.824;16.228;2023-11-19T00:54:16;4.53;;;4.13;;
18653;SDS011;9456;47.824;16.228;2023-11-19T00:56:44;5.77;;;4.67;;
18653;SDS011;9456;47.824;16.228;2023-11-19T00:59:12;4.63;;;4.23;;
18653;SDS011;9456;47.824;16.228;2023-11-19T01:01:40;4.80;;;4.30;;
18653;SDS011;9456;47.824;16.228;2023-11-19T01:04:08;4.80;;;4.40;;
18653;SDS011;9456;47.824;16.228;2023-11-19T01:06:36;7.30;;;5.00;;
18653;SDS011;9456;47.824;16.228;2023-11-19T01:09:04;6.10;;;5.50;;
18653;SDS011;9456;47.824;16.228;2023-11-19T01:11:32;7.07;;;5.70;;
18653;SDS011;9456;47.824;16.228;2023-11-19T01:14:00;5.90;;;5.30;;
18653;SDS011;9456;47.824;16.228;2023-11-19T01:16:28;5.37;;;4.93;;
18653;SDS011;9456;47.824;16.228;2023-11-19T01:18:56;4.63;;;4.23;;
18653;SDS011;9456;47.824;16.228;2023-11-19T01:21:24;5.47;;;4.97;;
18653;SDS011;9456;47.824;16.228;2023-11-19T01:23:52;5.73;;;5.07;;
18653;SDS011;9456;47.824;16.228;2023-11-19T01:26:23;4.40;;;4.00;;
18653;SDS011;9456;47.824;16.228;2023-11-19T01:28:51;4.67;;;4.17;;
18653;SDS011;9456;47.824;16.228;2023-11-19T01:31:19;7.57;;;3.93;;
18653;SDS011;9456;47.824;16.228;2023-11-19T01:33:47;4.87;;;4.40;;
18653;SDS011;9456;47.824;16.228;2023-11-19T01:36:15;4.00;;;3.70;;
18653;SDS011;9456;47.824;16.228;2023-11-19T01:38:43;5.07;;;4.37;;
18653;SDS011;9456;47.824;16.228;2023-11-19T01:41:11;5.40;;;4.40;;
18653;SDS011;9456;47.824;16.228;2023-11-19T01:43:39;3.83;;;3.53;;
18653;SDS011;9456;47.824;16.228;2023-11-19T01:46:09;4.60;;;4.10;;
18653;SDS011;9456;47.824;16.228;2023-11-19T01:48:38;4.23;;;3.87;;
18653;SDS011;9456;47.824;16.228;2023-11-19T01:51:06;5.73;;;4.37;;
18653;SDS011;9456;47.824;16.228;2023-11-19T01:53:34;4.37;;;4.03;;
18653;SDS011;9456;47.824;16.228;2023-11-19T01:56:02;4.83;;;4.43;;
18653;SDS011;9456;47.824;16.228;2023-11-19T01:58:30;4.53;;;4.13;;
18653;SDS011;9456;47.824;16.228;2023-11-19T02:00:58;4.00;;;3.70;;
18653;SDS011;9456;47.824;16.228;2023-11-19T02:03:27;5.03;;;4.60;;
18653;SDS011;9456;47.824;16.228;2023-11-19T02:05:55;4.80;;;4.43;;
18653;SDS011;9456;47.824;16.228;2023-11-19T02:08:23;4.37;;;3.97;;
18653;SDS011;9456;47.824;16.228;2023-11-19T02:10:51;5.30;;;4.83;;
18653;SDS011;9456;47.824;16.228;2023-11-19T02:13:19;5.27;;;4.77;;
18653;SDS011;9456;47.824;16.228;2023-11-19T02:15:47;5.30;;;4.80;;
18653;SDS011;9456;47.824;16.228;2023-11-19T02:18:18;6.90;;;5.00;;
18653;SDS011;9456;47.824;16.228;2023-11-19T02:20:46;5.30;;;4.83;;
18653;SDS011;9456;47.824;16.228;2023-11-19T02:23:14;5.83;;;4.77;;
18653;SDS011;9456;47.824;16.228;2023-11-19T02:25:42;5.70;;;5.20;;
18653;SDS011;9456;47.824;16.228;2023-11-19T02:28:10;5.63;;;5.13;;
18653;SDS011;9456;47.824;16.228;2023-11-19T02:30:39;5.93;;;5.20;;
18653;SDS011;9456;47.824;16.228;2023-11-19T02:33:07;5.93;;;5.43;;
18653;SDS011;9456;47.824;16.228;2023-11-19T02:35:35;5.80;;;5.30;;
18653;SDS011;9456;47.824;16.228;2023-11-19T02:38:03;6.53;;;5.80;;
18653;SDS011;9456;47.824;16.228;2023-11-19T02:40:31;6.00;;;5.50;;
18653;SDS011;9456;47.824;16.228;2023-11-19T02:42:59;5.90;;;5.40;;
18653;SDS011;9456;47.824;16.228;2023-11-19T02:45:27;5.70;;;5.20;;
18653;SDS011;9456;47.824;16.228;2023-11-19T02:47:55;5.57;;;5.07;;
18653;SDS011;9456;47.824;16.228;2023-11-19T02:50:24;5.83;;;5.33;;
18653;SDS011;9456;47.824;16.228;2023-11-19T02:52:53;5.77;;;5.27;;
18653;SDS011;9456;47.824;16.228;2023-11-19T02:55:22;6.30;;;5.73;;
18653;SDS011;9456;47.824;16.228;2023-11-19T02:57:51;6.13;;;5.63;;
18653;SDS011;9456;47.824;16.228;2023-11-19T03:00:19;5.43;;;5.03;;
18653;SDS011;9456;47.824;16.228;2023-11-19T03:02:48;6.77;;;6.07;;
18653;SDS011;9456;47.824;16.228;2023-11-19T03:05:16;6.03;;;5.50;;
18653;SDS011;9456;47.824;16.228;2023-11-19T03:07:44;6.67;;;6.07;;
18653;SDS011;9456;47.824;16.228;2023-11-19T03:10:12;6.97;;;6.33;;
18653;SDS011;9456;47.824;16.228;2023-11-19T03:12:41;7.40;;;6.70;;
18653;SDS011;9456;47.824;16.228;2023-11-19T03:15:09;7.70;;;7.00;;
18653;SDS011;9456;47.824;16.228;2023-11-19T03:17:38;7.23;;;6.50;;
18653;SDS011;9456;47.824;16.228;2023-11-19T03:20:06;5.87;;;5.37;;
18653;SDS011;9456;47.824;16.228;2023-11-19T03:22:34;6.30;;;5.70;;
18653;SDS011;9456;47.824;16.228;2023-11-19T03:25:02;6.20;;;5.70;;
18653;SDS011;9456;47.824;16.228;2023-11-19T03:27:30;5.50;;;5.10;;
18653;SDS011;9456;47.824;16.228;2023-11-19T03:29:58;5.87;;;4.70;;
18653;SDS011;9456;47.824;16.228;2023-11-19T03:32:26;6.33;;;5.47;;
18653;SDS011;9456;47.824;16.228;2023-11-19T03:34:54;6.30;;;5.40;;
18653;SDS011;9456;47.824;16.228;2023-11-19T03:37:23;5.50;;;5.00;;
18653;SDS011;9456;47.824;16.228;2023-11-19T03:39:51;7.60;;;5.70;;
18653;SDS011;9456;47.824;16.228;2023-11-19T03:42:19;6.70;;;5.50;;
18653;SDS011;9456;47.824;16.228;2023-11-19T03:44:48;5.77;;;5.33;;
18653;SDS011;9456;47.824;16.228;2023-11-19T03:47:17;6.40;;;5.80;;
18653;SDS011;9456;47.824;16.228;2023-11-19T03:49:47;6.23;;;5.63;;
18653;SDS011;9456;47.824;16.228;2023-11-19T03:52:16;5.80;;;5.30;;
18653;SDS011;9456;47.824;16.228;2023-11-19T03:54:44;5.30;;;4.90;;
18653;SDS011;9456;47.824;16.228;2023-11-19T03:57:13;5.70;;;5.20;;
18653;SDS011;9456;47.824;16.228;2023-11-19T03:59:41;5.93;;;5.43;;
18653;SDS011;9456;47.824;16.228;2023-11-19T04:02:09;5.63;;;5.13;;
18653;SDS011;9456;47.824;16.228;2023-11-19T04:04:37;5.47;;;4.97;;
18653;SDS011;9456;47.824;16.228;2023-11-19T04:07:05;6.17;;;5.67;;
18653;SDS011;9456;47.824;16.228;2023-11-19T04:09:33;5.30;;;4.80;;
18653;SDS011;9456;47.824;16.228;2023-11-19T04:12:01;5.67;;;5.17;;
18653;SDS011;9456;47.824;16.228;2023-11-19T04:14:29;5.43;;;4.93;;
18653;SDS011;9456;47.824;16.228;2023-11-19T04:16:57;5.20;;;4.63;;
18653;SDS011;9456;47.824;16.228;2023-11-19T04:19:25;7.07;;;5.30;;
18653;SDS011;9456;47.824;16.228;2023-11-19T04:21:53;5.43;;;4.93;;
18653;SDS011;9456;47.824;16.228;2023-11-19T04:24:21;5.10;;;4.60;;
18653;SDS011;9456;47.824;16.228;2023-11-19T04:26:49;5.40;;;4.90;;
18653;SDS011;9456;47.824;16.228;2023-11-19T04:29:17;5.50;;;5.03;;
18653;SDS011;9456;47.824;16.228;2023-11-19T04:31:45;5.23;;;4.83;;
18653;SDS011;9456;47.824;16.228;2023-11-19T04:34:13;5.83;;;4.97;;
18653;SDS011;9456;47.824;16.228;2023-11-19T04:36:41;4.93;;;4.53;;
18653;SDS011;9456;47.824;16.228;2023-11-19T04:39:09;4.57;;;4.23;;
18653;SDS011;9456;47.824;16.228;2023-11-19T04:41:44;5.10;;;4.60;;
18653;SDS011;9456;47.824;16.228;2023-11-19T04:44:05;6.17;;;5.67;;
18653;SDS011;9456;47.824;16.228;2023-11-19T04:46:36;10.17;;;8.10;;
18653;SDS011;9456;47.824;16.228;2023-11-19T04:49:04;9.80;;;8.90;;
18653;SDS011;9456;47.824;16.228;2023-11-19T04:51:32;7.57;;;6.87;;
18653;SDS011;9456;47.824;16.228;2023-11-19T04:54:00;5.80;;;5.30;;
18653;SDS011;9456;47.824;16.228;2023-11-19T04:56:28;5.87;;;5.27;;
18653;SDS011;9456;47.824;16.228;2023-11-19T04:58:56;4.70;;;4.40;;
18653;SDS011;9456;47.824;16.228;2023-11-19T05:01:24;5.83;;;5.33;;
18653;SDS011;9456;47.824;16.228;2023-11-19T05:03:52;5.13;;;4.73;;
18653;SDS011;9456;47.824;16.228;2023-11-19T05:06:20;5.00;;;4.60;;
18653;SDS011;9456;47.824;16.228;2023-11-19T05:08:48;5.50;;;5.00;;
18653;SDS011;9456;47.824;16.228;2023-11-19T05:11:16;7.43;;;6.73;;
18653;SDS011;9456;47.824;16.228;2023-11-19T05:13:44;5.80;;;5.23;;
18653;SDS011;9456;47.824;16.228;2023-11-19T05:16:12;5.67;;;5.17;;
18653;SDS011;9456;47.824;16.228;2023-11-19T05:18:41;6.10;;;5.53;;
18653;SDS011;9456;47.824;16.228;2023-11-19T05:21:09;5.80;;;5.30;;
18653;SDS011;9456;47.824;16.228;2023-11-19T05:23:37;5.60;;;5.07;;
18653;SDS011;9456;47.824;16.228;2023-11-19T05:26:05;7.47;;;6.43;;
18653;SDS011;9456;47.824;16.228;2023-11-19T05:31:12;6.07;;;5.57;;
18653;SDS011;9456;47.824;16.228;2023-11-19T05:33:40;6.20;;;5.70;;
18653;SDS011;9456;47.824;16.228;2023-11-19T05:36:08;6.17;;;5.67;;
18653;SDS011;9456;47.824;16.228;2023-11-19T05:38:36;5.47;;;5.07;;
18653;SDS011;9456;47.824;16.228;2023-11-19T05:41:05;6.13;;;5.63;;
18653;SDS011;9456;47.824;16.228;2023-11-19T05:43:37;5.50;;;5.00;;
18653;SDS011;9456;47.824;16.228;2023-11-19T05:46:06;6.37;;;5.77;;
18653;SDS011;9456;47.824;16.228;2023-11-19T05:48:34;5.70;;;5.20;;
18653;SDS011;9456;47.824;16.228;2023-11-19T05:51:02;5.13;;;4.73;;
18653;SDS011;9456;47.824;16.228;2023-11-19T05:53:30;5.50;;;4.90;;
18653;SDS011;9456;47.824;16.228;2023-11-19T05:55:58;5.20;;;4.30;;
18653;SDS011;9456;47.824;16.228;2023-11-19T05:58:26;5.53;;;4.60;;
18653;SDS011;9456;47.824;16.228;2023-11-19T06:00:54;4.77;;;4.47;;
18653;SDS011;9456;47.824;16.228;2023-11-19T06:03:22;4.70;;;4.40;;
18653;SDS011;9456;47.824;16.228;2023-11-19T06:05:50;5.33;;;4.83;;
18653;SDS011;9456;47.824;16.228;2023-11-19T06:08:18;5.13;;;4.73;;
18653;SDS011;9456;47.824;16.228;2023-11-19T06:10:46;5.27;;;4.77;;
18653;SDS011;9456;47.824;16.228;2023-11-19T06:13:14;5.30;;;4.90;;
18653;SDS011;9456;47.824;16.228;2023-11-19T06:15:42;4.80;;;4.40;;
18653;SDS011;9456;47.824;16.228;2023-11-19T06:18:10;5.00;;;4.60;;
18653;SDS011;9456;47.824;16.228;2023-11-19T06:20:40;4.70;;;4.33;;
18653;SDS011;9456;47.824;16.228;2023-11-19T06:23:10;4.30;;;3.93;;
18653;SDS011;9456;47.824;16.228;2023-11-19T06:25:38;5.17;;;4.73;;
18653;SDS011;9456;47.824;16.228;2023-11-19T06:28:06;6.97;;;4.83;;
18653;SDS011;9456;47.824;16.228;2023-11-19T06:30:36;4.70;;;4.30;;
18653;SDS011;9456;47.824;16.228;2023-11-19T06:33:04;4.30;;;4.00;;
18653;SDS011;9456;47.824;16.228;2023-11-19T06:35:32;4.17;;;3.87;;
18653;SDS011;9456;47.824;16.228;2023-11-19T06:38:08;4.07;;;3.77;;
18653;SDS011;9456;47.824;16.228;2023-11-19T06:40:36;4.50;;;3.93;;
18653;SDS011;9456;47.824;16.228;2023-11-19T06:43:04;4.17;;;3.87;;
18653;SDS011;9456;47.824;16.228;2023-11-19T06:45:32;3.93;;;3.67;;
18653;SDS011;9456;47.824;16.228;2023-11-19T06:48:01;3.87;;;3.57;;
18653;SDS011;9456;47.824;16.228;2023-11-19T06:50:30;4.33;;;4.03;;
18653;SDS011;9456;47.824;16.228;2023-11-19T06:52:58;4.10;;;3.80;;
18653;SDS011;9456;47.824;16.228;2023-11-19T06:55:27;4.13;;;3.83;;
18653;SDS011;9456;47.824;16.228;2023-11-19T06:57:55;4.30;;;3.97;;
18653;SDS011;9456;47.824;16.228;2023-11-19T07:00:23;4.90;;;4.50;;
18653;SDS011;9456;47.824;16.228;2023-11-19T07:02:51;5.00;;;4.60;;
18653;SDS011;9456;47.824;16.228;2023-11-19T07:05:19;5.47;;;5.07;;
18653;SDS011;9456;47.824;16.228;2023-11-19T07:07:47;4.83;;;4.53;;
18653;SDS011;9456;47.824;16.228;2023-11-19T07:10:15;6.43;;;5.93;;
18653;SDS011;9456;47.824;16.228;2023-11-19T07:12:43;6.83;;;6.23;;
18653;SDS011;9456;47.824;16.228;2023-11-19T07:15:11;7.53;;;6.90;;
18653;SDS011;9456;47.824;16.228;2023-11-19T07:17:40;7.60;;;6.80;;
18653;SDS011;9456;47.824;16.228;2023-11-19T07:22:48;5.47;;;5.07;;
18653;SDS011;9456;47.824;16.228;2023-11-19T07:25:16;5.77;;;5.23;;
18653;SDS011;9456;47.824;16.228;2023-11-19T07:27:44;5.60;;;5.10;;
18653;SDS011;9456;47.824;16.228;2023-11-19T07:30:12;6.53;;;5.93;;
18653;SDS011;9456;47.824;16.228;2023-11-19T07:32:40;21.20;;;14.37;;
18653;SDS011;9456;47.824;16.228;2023-11-19T07:35:15;43.20;;;27.70;;
18653;SDS011;9456;47.824;16.228;2023-11-19T07:37:43;13.00;;;10.20;;
18653;SDS011;9456;47.824;16.228;2023-11-19T07:45:17;5.17;;;4.77;;
18653;SDS011;9456;47.824;16.228;2023-11-19T07:47:45;7.67;;;5.23;;
18653;SDS011;9456;47.824;16.228;2023-11-19T07:50:13;5.10;;;4.70;;
18653;SDS011;9456;47.824;16.228;2023-11-19T07:52:41;5.90;;;5.40;;
18653;SDS011;9456;47.824;16.228;2023-11-19T07:55:09;4.07;;;3.77;;
18653;SDS011;9456;47.824;16.228;2023-11-19T07:57:37;3.90;;;3.60;;
18653;SDS011;9456;47.824;16.228;2023-11-19T08:00:06;3.80;;;3.50;;
18653;SDS011;9456;47.824;16.228;2023-11-19T08:02:34;3.40;;;3.17;;
18653;SDS011;9456;47.824;16.228;2023-11-19T08:05:03;4.40;;;4.00;;
18653;SDS011;9456;47.824;16.228;2023-11-19T08:07:31;4.63;;;4.33;;
18653;SDS011;9456;47.824;16.228;2023-11-19T08:09:58;3.53;;;3.33;;
18653;SDS011;9456;47.824;16.228;2023-11-19T08:12:27;4.10;;;3.80;;
18653;SDS011;9456;47.824;16.228;2023-11-19T08:14:59;4.60;;;4.17;;
18653;SDS011;9456;47.824;16.228;2023-11-19T08:17:27;5.00;;;4.40;;
18653;SDS011;9456;47.824;16.228;2023-11-19T08:19:55;4.60;;;4.20;;
18653;SDS011;9456;47.824;16.228;2023-11-19T08:22:23;4.03;;;3.73;;
18653;SDS011;9456;47.824;16.228;2023-11-19T08:24:51;3.43;;;3.23;;
18653;SDS011;9456;47.824;16.228;2023-11-19T08:27:19;3.17;;;2.97;;
18653;SDS011;9456;47.824;16.228;2023-11-19T08:42:50;2.40;;;2.30;;
18653;SDS011;9456;47.824;16.228;2023-11-19T08:45:18;2.20;;;2.10;;
18653;SDS011;9456;47.824;16.228;2023-11-19T08:47:46;2.30;;;2.10;;
18653;SDS011;9456;47.824;16.228;2023-11-19T08:50:14;2.50;;;2.40;;
18653;SDS011;9456;47.824;16.228;2023-11-19T08:52:42;2.47;;;2.30;;
18653;SDS011;9456;47.824;16.228;2023-11-19T08:55:10;2.50;;;2.40;;
18653;SDS011;9456;47.824;16.228;2023-11-19T08:57:38;3.60;;;2.80;;
18653;SDS011;9456;47.824;16.228;2023-11-19T09:00:07;2.67;;;2.47;;
18653;SDS011;9456;47.824;16.228;2023-11-19T09:02:35;3.20;;;3.00;;
18653;SDS011;9456;47.824;16.228;2023-11-19T09:05:05;2.80;;;2.60;;
18653;SDS011;9456;47.824;16.228;2023-11-19T09:07:36;3.23;;;2.90;;
18653;SDS011;9456;47.824;16.228;2023-11-19T09:10:07;3.40;;;3.10;;
18653;SDS011;9456;47.824;16.228;2023-11-19T09:12:35;3.00;;;2.73;;
18653;SDS011;9456;47.824;16.228;2023-11-19T09:15:03;3.93;;;3.00;;
18653;SDS011;9456;47.824;16.228;2023-11-19T09:17:31;3.20;;;3.00;;
18653;SDS011;9456;47.824;16.228;2023-11-19T09:19:59;3.10;;;2.90;;
18653;SDS011;9456;47.824;16.228;2023-11-19T09:22:27;2.73;;;2.63;;
18653;SDS011;9456;47.824;16.228;2023-11-19T09:27:39;3.70;;;2.80;;
18653;SDS011;9456;47.824;16.228;2023-11-19T09:30:08;3.10;;;2.80;;
18653;SDS011;9456;47.824;16.228;2023-11-19T09:32:36;2.87;;;2.70;;
18653;SDS011;9456;47.824;16.228;2023-11-19T09:35:05;2.60;;;2.40;;
18653;SDS011;9456;47.824;16.228;2023-11-19T09:37:33;2.80;;;2.60;;
18653;SDS011;9456;47.824;16.228;2023-11-19T09:40:01;2.90;;;2.70;;
18653;SDS011;9456;47.824;16.228;2023-11-19T09:42:29;2.80;;;2.60;;
18653;SDS011;9456;47.824;16.228;2023-11-19T09:44:57;3.30;;;3.10;;
18653;SDS011;9456;47.824;16.228;2023-11-19T09:47:25;3.77;;;3.47;;
18653;SDS011;9456;47.824;16.228;2023-11-19T09:49:53;3.67;;;3.37;;
18653;SDS011;9456;47.824;16.228;2023-11-19T09:52:21;3.67;;;3.40;;
18653;SDS011;9456;47.824;16.228;2023-11-19T09:54:49;4.57;;;4.17;;
18653;SDS011;9456;47.824;16.228;2023-11-19T09:57:17;4.13;;;3.83;;
18653;SDS011;9456;47.824;16.228;2023-11-19T09:59:46;4.57;;;4.17;;
18653;SDS011;9456;47.824;16.228;2023-11-19T10:02:13;4.67;;;3.90;;
18653;SDS011;9456;47.824;16.228;2023-11-19T10:04:41;5.03;;;3.80;;
18653;SDS011;9456;47.824;16.228;2023-11-19T10:09:47;3.83;;;3.57;;
18653;SDS011;9456;47.824;16.228;2023-11-19T10:12:15;4.50;;;4.20;;
18653;SDS011;9456;47.824;16.228;2023-11-19T10:14:43;4.67;;;4.27;;
18653;SDS011;9456;47.824;16.228;2023-11-19T10:17:11;5.93;;;4.50;;
18653;SDS011;9456;47.824;16.228;2023-11-19T10:19:40;5.10;;;4.70;;
18653;SDS011;9456;47.824;16.228;2023-11-19T10:22:16;5.03;;;4.57;;
18653;SDS011;9456;47.824;16.228;2023-11-19T10:24:44;5.07;;;4.63;;
18653;SDS011;9456;47.824;16.228;2023-11-19T10:27:12;5.27;;;4.87;;
18653;SDS011;9456;47.824;16.228;2023-11-19T10:29:45;18.83;;;15.37;;
18653;SDS011;9456;47.824;16.228;2023-11-19T10:32:13;5.40;;;5.00;;
18653;SDS011;9456;47.824;16.228;2023-11-19T10:34:42;4.93;;;4.53;;
18653;SDS011;9456;47.824;16.228;2023-11-19T10:37:10;5.40;;;4.90;;
18653;SDS011;9456;47.824;16.228;2023-11-19T10:39:54;4.60;;;4.30;;
18653;SDS011;9456;47.824;16.228;2023-11-19T10:42:26;4.43;;;4.07;;
18653;SDS011;9456;47.824;16.228;2023-11-19T10:44:54;4.77;;;4.37;;
18653;SDS011;9456;47.824;16.228;2023-11-19T10:47:22;4.00;;;3.70;;
18653;SDS011;9456;47.824;16.228;2023-11-19T10:49:50;4.87;;;4.50;;
18653;SDS011;9456;47.824;16.228;2023-11-19T10:52:18;5.37;;;4.90;;
18653;SDS011;9456;47.824;16.228;2023-11-19T10:54:49;10.30;;;6.00;;
18653;SDS011;9456;47.824;16.228;2023-11-19T10:57:17;5.57;;;5.07;;
18653;SDS011;9456;47.824;16.228;2023-11-19T10:59:44;5.63;;;5.20;;
18653;SDS011;9456;47.824;16.228;2023-11-19T11:04:49;6.57;;;6.03;;
18653;SDS011;9456;47.824;16.228;2023-11-19T11:07:17;6.90;;;6.30;;
18653;SDS011;9456;47.824;16.228;2023-11-19T11:09:45;6.43;;;5.87;;
18653;SDS011;9456;47.824;16.228;2023-11-19T11:12:13;6.50;;;5.87;;
18653;SDS011;9456;47.824;16.228;2023-11-19T11:14:41;6.80;;;6.20;;
18653;SDS011;9456;47.824;16.228;2023-11-19T11:19:46;6.73;;;6.13;;
18653;SDS011;9456;47.824;16.228;2023-11-19T11:22:14;7.10;;;6.50;;
18653;SDS011;9456;47.824;16.228;2023-11-19T11:30:20;7.23;;;6.63;;
18653;SDS011;9456;47.824;16.228;2023-11-19T11:32:50;8.70;;;7.83;;
18653;SDS011;9456;47.824;16.228;2023-11-19T11:35:24;6.17;;;5.67;;
18653;SDS011;9456;47.824;16.228;2023-11-19T11:37:55;6.17;;;5.67;;
18653;SDS011;9456;47.824;16.228;2023-11-19T11:40:27;6.07;;;5.57;;
18653;SDS011;9456;47.824;16.228;2023-11-19T11:43:04;7.03;;;6.23;;
18653;SDS011;9456;47.824;16.228;2023-11-19T11:45:36;6.40;;;5.80;;
18653;SDS011;9456;47.824;16.228;2023-11-19T11:48:09;5.80;;;5.30;;
18653;SDS011;9456;47.824;16.228;2023-11-19T11:53:34;6.63;;;6.10;;
18653;SDS011;9456;47.824;16.228;2023-11-19T11:56:02;6.17;;;5.67;;
18653;SDS011;9456;47.824;16.228;2023-11-19T11:58:35;6.70;;;6.10;;
18653;SDS011;9456;47.824;16.228;2023-11-19T12:01:03;6.30;;;5.80;;
18653;SDS011;9456;47.824;16.228;2023-11-19T12:03:31;6.43;;;5.93;;
18653;SDS011;9456;47.824;16.228;2023-11-19T12:05:58;6.60;;;6.10;;
18653;SDS011;9456;47.824;16.228;2023-11-19T12:08:27;6.77;;;6.17;;
18653;SDS011;9456;47.824;16.228;2023-11-19T12:10:55;6.73;;;6.13;;
18653;SDS011;9456;47.824;16.228;2023-11-19T12:13:25;6.40;;;5.87;;
18653;SDS011;9456;47.824;16.228;2023-11-19T12:16:11;6.83;;;6.20;;
18653;SDS011;9456;47.824;16.228;2023-11-19T12:18:39;6.53;;;6.03;;
18653;SDS011;9456;47.824;16.228;2023-11-19T12:21:08;7.00;;;6.40;;
18653;SDS011;9456;47.824;16.228;2023-11-19T12:23:44;7.03;;;6.43;;
18653;SDS011;9456;47.824;16.228;2023-11-19T12:26:21;7.27;;;6.57;;
18653;SDS011;9456;47.824;16.228;2023-11-19T12:28:58;6.20;;;5.70;;
18653;SDS011;9456;47.824;16.228;2023-11-19T12:31:26;8.03;;;7.23;;
18653;SDS011;9456;47.824;16.228;2023-11-19T12:33:54;7.33;;;6.63;;
18653;SDS011;9456;47.824;16.228;2023-11-19T12:36:22;6.93;;;6.33;;
18653;SDS011;9456;47.824;16.228;2023-11-19T12:38:50;7.13;;;6.53;;
18653;SDS011;9456;47.824;16.228;2023-11-19T12:41:18;8.10;;;7.40;;
18653;SDS011;9456;47.824;16.228;2023-11-19T12:43:46;7.83;;;7.03;;
18653;SDS011;9456;47.824;16.228;2023-11-19T12:46:21;8.50;;;7.70;;
18653;SDS011;9456;47.824;16.228;2023-11-19T12:48:49;7.40;;;6.67;;
18653;SDS011;9456;47.824;16.228;2023-11-19T12:51:17;7.20;;;6.50;;
18653;SDS011;9456;47.824;16.228;2023-11-19T12:53:51;7.97;;;7.27;;
18653;SDS011;9456;47.824;16.228;2023-11-19T12:56:18;8.00;;;7.23;;
18653;SDS011;9456;47.824;16.228;2023-11-19T12:58:46;9.03;;;8.10;;
18653;SDS011;9456;47.824;16.228;2023-11-19T13:01:17;9.33;;;8.43;;
18653;SDS011;9456;47.824;16.228;2023-11-19T13:03:44;8.37;;;7.57;;
18653;SDS011;9456;47.824;16.228;2023-11-19T13:06:13;8.53;;;7.83;;
18653;SDS011;9456;47.824;16.228;2023-11-19T13:08:41;10.00;;;9.00;;
18653;SDS011;9456;47.824;16.228;2023-11-19T13:11:08;8.03;;;7.23;;
18653;SDS011;9456;47.824;16.228;2023-11-19T13:13:54;9.23;;;8.43;;
18653;SDS011;9456;47.824;16.228;2023-11-19T13:16:22;9.00;;;8.20;;
18653;SDS011;9456;47.824;16.228;2023-11-19T13:18:50;12.87;;;11.57;;
18653;SDS011;9456;47.824;16.228;2023-11-19T13:21:18;8.10;;;7.40;;
18653;SDS011;9456;47.824;16.228;2023-11-19T13:23:46;8.23;;;7.43;;
18653;SDS011;9456;47.824;16.228;2023-11-19T13:26:14;6.97;;;6.37;;
18653;SDS011;9456;47.824;16.228;2023-11-19T13:28:42;7.80;;;7.00;;
18653;SDS011;9456;47.824;16.228;2023-11-19T13:31:10;6.77;;;6.17;;
18653;SDS011;9456;47.824;16.228;2023-11-19T13:33:38;9.07;;;8.27;;
18653;SDS011;9456;47.824;16.228;2023-11-19T13:36:06;9.73;;;8.73;;
18653;SDS011;9456;47.824;16.228;2023-11-19T13:38:35;8.73;;;7.93;;
18653;SDS011;9456;47.824;16.228;2023-11-19T13:41:03;9.47;;;8.20;;
18653;SDS011;9456;47.824;16.228;2023-11-19T13:43:31;6.77;;;6.27;;
18653;SDS011;9456;47.824;16.228;2023-11-19T13:45:58;7.60;;;6.90;;
18653;SDS011;9456;47.824;16.228;2023-11-19T13:48:26;7.37;;;6.77;;
18653;SDS011;9456;47.824;16.228;2023-11-19T13:50:55;7.97;;;7.27;;
18653;SDS011;9456;47.824;16.228;2023-11-19T13:53:23;6.87;;;6.27;;
18653;SDS011;9456;47.824;16.228;2023-11-19T13:55:51;7.87;;;7.23;;
18653;SDS011;9456;47.824;16.228;2023-11-19T13:58:19;7.27;;;6.60;;
18653;SDS011;9456;47.824;16.228;2023-11-19T14:00:47;7.90;;;7.20;;
18653;SDS011;9456;47.824;16.228;2023-11-19T14:03:18;7.87;;;7.07;;
18653;SDS011;9456;47.824;16.228;2023-11-19T14:05:46;7.83;;;7.13;;
18653;SDS011;9456;47.824;16.228;2023-11-19T14:08:14;8.07;;;7.47;;
18653;SDS011;9456;47.824;16.228;2023-11-19T14:10:42;8.20;;;7.50;;
18653;SDS011;9456;47.824;16.228;2023-11-19T14:13:10;8.20;;;7.50;;
18653;SDS011;9456;47.824;16.228;2023-11-19T14:15:38;8.33;;;7.60;;
18653;SDS011;9456;47.824;16.228;2023-11-19T14:18:06;7.87;;;6.83;;
18653;SDS011;9456;47.824;16.228;2023-11-19T14:20:34;8.07;;;7.37;;
18653;SDS011;9456;47.824;16.228;2023-11-19T14:23:03;8.30;;;7.53;;
18653;SDS011;9456;47.824;16.228;2023-11-19T14:25:31;8.47;;;7.73;;
18653;SDS011;9456;47.824;16.228;2023-11-19T14:27:59;9.07;;;8.27;;
18653;SDS011;9456;47.824;16.228;2023-11-19T14:30:27;8.67;;;7.97;;
18653;SDS011;9456;47.824;16.228;2023-11-19T14:32:55;11.93;;;10.83;;
18653;SDS011;9456;47.824;16.228;2023-11-19T14:35:23;12.67;;;11.33;;
18653;SDS011;9456;47.824;16.228;2023-11-19T14:37:51;10.87;;;9.87;;
18653;SDS011;9456;47.824;16.228;2023-11-19T14:40:19;10.37;;;9.43;;
18653;SDS011;9456;47.824;16.228;2023-11-19T14:42:47;11.70;;;10.67;;
18653;SDS011;9456;47.824;16.228;2023-11-19T14:45:15;11.00;;;10.00;;
18653;SDS011;9456;47.824;16.228;2023-11-19T14:47:43;10.33;;;9.33;;
18653;SDS011;9456;47.824;16.228;2023-11-19T14:50:11;10.63;;;9.57;;
18653;SDS011;9456;47.824;16.228;2023-11-19T14:52:39;10.03;;;9.03;;
18653;SDS011;9456;47.824;16.228;2023-11-19T14:55:08;10.37;;;9.27;;
18653;SDS011;9456;47.824;16.228;2023-11-19T14:57:36;14.37;;;12.93;;
18653;SDS011;9456;47.824;16.228;2023-11-19T15:00:05;12.10;;;11.00;;
18653;SDS011;9456;47.824;16.228;2023-11-19T15:02:34;13.77;;;12.37;;
18653;SDS011;9456;47.824;16.228;2023-11-19T15:05:02;11.80;;;10.70;;
18653;SDS011;9456;47.824;16.228;2023-11-19T15:07:30;12.90;;;11.70;;
18653;SDS011;9456;47.824;16.228;2023-11-19T15:09:59;14.13;;;12.70;;
18653;SDS011;9456;47.824;16.228;2023-11-19T15:12:27;13.93;;;12.63;;
18653;SDS011;9456;47.824;16.228;2023-11-19T15:14:55;14.13;;;12.83;;
18653;SDS011;9456;47.824;16.228;2023-11-19T15:17:23;14.17;;;12.67;;
18653;SDS011;9456;47.824;16.228;2023-11-19T15:19:51;14.07;;;12.77;;
18653;SDS011;9456;47.824;16.228;2023-11-19T15:22:19;12.67;;;11.53;;
18653;SDS011;9456;47.824;16.228;2023-11-19T15:24:47;13.30;;;12.00;;
18653;SDS011;9456;47.824;16.228;2023-11-19T15:27:15;13.70;;;11.43;;
18653;SDS011;9456;47.824;16.228;2023-11-19T15:29:43;13.30;;;12.00;;
18653;SDS011;9456;47.824;16.228;2023-11-19T15:32:11;13.83;;;12.43;;
18653;SDS011;9456;47.824;16.228;2023-11-19T15:34:39;16.90;;;15.30;;
18653;SDS011;9456;47.824;16.228;2023-11-19T15:37:07;18.07;;;16.23;;